EST,Max TemperatureF,Mean TemperatureF,Min TemperatureF,Max Dew PointF,MeanDew PointF,Min DewpointF,Max Humidity, Mean Humidity, Min Humidity, Max Sea Level PressureIn, Mean Sea Level PressureIn, Min Sea Level PressureIn, Max VisibilityMiles, Mean VisibilityMiles, Min VisibilityMiles, Max Wind SpeedMPH, Mean Wind SpeedMPH, Max Gust SpeedMPH,PrecipitationIn, CloudCover, Events, WindDirDegrees
2013-2-1,39,31,23,29,10,0,77,41,24,30.38,30.14,29.85,10,10,5,23,9,37,0.00,1,Snow,278
2013-2-2,40,28,18,30,10,4,75,46,25,30.38,30.24,30.02,10,10,7,15,4,23,0.00,4,Rain-Snow,194
2013-2-3,47,38,32,33,27,19,96,68,36,30.01,29.93,29.84,10,10,7,12,6,18,0.00,5,Rain,270
2013-2-4,46,36,26,25,19,14,80,47,31,30.13,30.04,29.98,10,10,10,13,5,16,0.00,2,,233
2013-2-5,57,46,36,31,29,25,81,53,34,29.98,29.93,29.88,10,10,10,13,8,,0.00,4,,219
2013-2-6,57,46,34,32,27,20,85,53,25,30.29,30.13,29.97,10,10,10,13,4,18,0.00,0,,303
2013-2-7,45,39,33,40,34,27,95,81,60,30.35,30.25,30.04,10,8,3,13,7,18,0.59,4,Rain,46
2013-2-8,53,44,36,42,36,24,96,77,48,30.03,29.89,29.80,10,9,4,18,9,29,0.61,5,Rain,323
2013-2-9,49,40,31,24,18,10,65,45,21,30.35,30.22,30.02,10,10,10,10,6,20,0.00,0,,299
2013-2-10,49,37,25,37,19,14,81,47,25,30.49,30.38,30.20,10,10,7,9,3,,0.04,1,Rain,127
2013-2-11,59,50,42,58,50,37,97,91,81,30.21,30.02,29.91,10,7,2,15,7,21,0.06,6,Rain,201
2013-2-12,58,50,41,51,30,22,86,47,25,30.07,29.99,29.92,10,10,10,12,5,17,0.01,1,Rain,258
2013-2-13,48,46,40,44,41,31,96,87,49,29.96,29.77,29.61,10,6,1,12,2,16,0.11,7,Rain,242
2013-2-14,50,42,34,33,30,27,85,66,45,30.07,29.98,29.81,10,10,10,10,5,9,0.00,0,,259
2013-2-15,60,45,30,36,30,25,96,61,26,30.07,30.00,29.92,10,10,5,12,5,18,0.00,1,,226
2013-2-16,41,36,29,36,32,26,98,88,59,29.98,29.90,29.83,10,5,0,8,4,,0.17,8,Rain-Snow,344
2013-2-17,32,27,22,28,11,3,92,54,28,30.26,30.07,29.89,10,10,7,15,3,25,0.00,1,,304
2013-2-18,49,32,16,22,15,6,87,50,28,30.39,30.31,30.25,10,10,10,13,4,17,0.00,0,,207
2013-2-19,49,41,33,47,35,22,94,79,53,30.23,30.01,29.84,10,9,2,20,9,26,0.07,4,Rain,212
2013-2-20,50,40,31,30,13,6,69,36,17,30.14,30.04,29.95,10,10,10,14,6,23,0.00,0,,279
2013-2-21,50,38,26,23,15,12,74,40,24,30.28,30.18,30.11,10,10,10,10,5,,0.00,0,,342
2013-2-22,39,35,31,34,27,17,97,72,43,30.36,30.26,30.15,10,8,2,10,5,17,0.11,8,Rain-Snow,59
2013-2-23,41,38,34,40,37,34,98,96,92,30.13,29.95,29.82,10,5,2,9,4,,0.25,7,Rain,338
2013-2-24,59,50,40,43,32,22,97,60,26,30.04,29.90,29.79,10,8,1,12,5,17,0.06,2,Rain,296
2013-2-25,41,36,28,26,22,18,88,59,41,30.23,30.16,30.06,10,10,10,14,6,17,0.00,0,,44
2013-2-26,54,42,30,53,39,25,97,88,70,30.16,29.85,29.58,10,6,0,23,8,31,0.60,7,Fog-Rain,68
2013-2-27,58,48,40,45,37,31,96,70,37,29.76,29.69,29.61,10,10,5,12,7,18,0.00,3,,241
2013-2-28,47,42,36,35,27,21,84,56,38,29.84,29.75,29.68,10,10,10,15,4,24,0.00,4,,283